sensor_id;sensor_type;location;lat;lon;timestamp;P1;durP1;ratioP1;P2;durP2;ratioP2
1378;SDS011;683;48.738;9.226;2023-08-24T00:01:00;8.87;;;7.97;;
1378;SDS011;683;48.738;9.226;2023-08-24T00:03:27;9.57;;;7.80;;
1378;SDS011;683;48.738;9.226;2023-08-24T00:05:54;8.37;;;7.67;;
1378;SDS011;683;48.738;9.226;2023-08-24T00:08:21;9.10;;;8.20;;
1378;SDS011;683;48.738;9.226;2023-08-24T00:10:49;8.40;;;7.70;;
1378;SDS011;683;48.738;9.226;2023-08-24T00:13:16;9.40;;;8.40;;
1378;SDS011;683;48.738;9.226;2023-08-24T00:15:44;8.57;;;7.97;;
1378;SDS011;683;48.738;9.226;2023-08-24T00:18:12;8.33;;;7.63;;
1378;SDS011;683;48.738;9.226;2023-08-24T00:20:39;8.83;;;7.80;;
1378;SDS011;683;48.738;9.226;2023-08-24T00:23:06;10.47;;;9.57;;
1378;SDS011;683;48.738;9.226;2023-08-24T00:25:34;10.87;;;9.33;;
1378;SDS011;683;48.738;9.226;2023-08-24T00:28:01;8.60;;;7.90;;
1378;SDS011;683;48.738;9.226;2023-08-24T00:30:30;9.57;;;8.10;;
1378;SDS011;683;48.738;9.226;2023-08-24T00:32:58;7.20;;;6.60;;
1378;SDS011;683;48.738;9.226;2023-08-24T00:35:26;8.70;;;8.00;;
1378;SDS011;683;48.738;9.226;2023-08-24T00:37:53;13.47;;;9.73;;
1378;SDS011;683;48.738;9.226;2023-08-24T00:40:20;12.07;;;11.07;;
1378;SDS011;683;48.738;9.226;2023-08-24T00:42:47;12.13;;;11.10;;
1378;SDS011;683;48.738;9.226;2023-08-24T00:45:15;12.50;;;11.50;;
1378;SDS011;683;48.738;9.226;2023-08-24T00:47:42;11.83;;;10.83;;
1378;SDS011;683;48.738;9.226;2023-08-24T00:50:13;12.43;;;11.40;;
1378;SDS011;683;48.738;9.226;2023-08-24T00:52:40;12.80;;;11.80;;
1378;SDS011;683;48.738;9.226;2023-08-24T00:55:08;12.23;;;11.40;;
1378;SDS011;683;48.738;9.226;2023-08-24T00:57:37;14.60;;;12.97;;
1378;SDS011;683;48.738;9.226;2023-08-24T01:00:06;13.87;;;12.43;;
1378;SDS011;683;48.738;9.226;2023-08-24T01:02:35;15.20;;;13.90;;
1378;SDS011;683;48.738;9.226;2023-08-24T01:05:03;14.50;;;13.20;;
1378;SDS011;683;48.738;9.226;2023-08-24T01:07:32;12.97;;;11.90;;
1378;SDS011;683;48.738;9.226;2023-08-24T01:10:02;14.37;;;13.10;;
1378;SDS011;683;48.738;9.226;2023-08-24T01:12:32;12.53;;;11.33;;
1378;SDS011;683;48.738;9.226;2023-08-24T01:15:08;14.33;;;13.07;;
1378;SDS011;683;48.738;9.226;2023-08-24T01:17:39;11.67;;;10.57;;
1378;SDS011;683;48.738;9.226;2023-08-24T01:20:10;14.10;;;12.77;;
1378;SDS011;683;48.738;9.226;2023-08-24T01:22:44;23.07;;;13.03;;
1378;SDS011;683;48.738;9.226;2023-08-24T01:25:21;14.13;;;12.80;;
1378;SDS011;683;48.738;9.226;2023-08-24T01:28:01;15.03;;;13.77;;
1378;SDS011;683;48.738;9.226;2023-08-24T01:30:30;14.43;;;13.13;;
1378;SDS011;683;48.738;9.226;2023-08-24T01:33:02;13.90;;;12.80;;
1378;SDS011;683;48.738;9.226;2023-08-24T01:35:29;13.87;;;12.77;;
1378;SDS011;683;48.738;9.226;2023-08-24T01:37:58;13.70;;;11.73;;
1378;SDS011;683;48.738;9.226;2023-08-24T01:40:31;13.40;;;12.40;;
1378;SDS011;683;48.738;9.226;2023-08-24T01:43:05;15.00;;;13.70;;
1378;SDS011;683;48.738;9.226;2023-08-24T01:45:36;13.97;;;12.73;;
1378;SDS011;683;48.738;9.226;2023-08-24T01:48:05;15.27;;;13.70;;
1378;SDS011;683;48.738;9.226;2023-08-24T01:50:33;14.43;;;13.13;;
1378;SDS011;683;48.738;9.226;2023-08-24T01:53:02;14.23;;;12.80;;
1378;SDS011;683;48.738;9.226;2023-08-24T01:55:30;14.60;;;13.37;;
1378;SDS011;683;48.738;9.226;2023-08-24T01:57:57;15.27;;;13.83;;
1378;SDS011;683;48.738;9.226;2023-08-24T02:00:26;13.67;;;12.53;;
1378;SDS011;683;48.738;9.226;2023-08-24T02:02:54;15.00;;;12.80;;
1378;SDS011;683;48.738;9.226;2023-08-24T02:05:21;13.77;;;12.57;;
1378;SDS011;683;48.738;9.226;2023-08-24T02:07:50;14.33;;;13.10;;
1378;SDS011;683;48.738;9.226;2023-08-24T02:10:18;14.60;;;13.30;;
1378;SDS011;683;48.738;9.226;2023-08-24T02:12:45;14.73;;;13.43;;
1378;SDS011;683;48.738;9.226;2023-08-24T02:15:12;14.17;;;12.97;;
1378;SDS011;683;48.738;9.226;2023-08-24T02:17:40;13.50;;;12.23;;
1378;SDS011;683;48.738;9.226;2023-08-24T02:20:08;14.20;;;12.80;;
1378;SDS011;683;48.738;9.226;2023-08-24T02:22:36;12.67;;;11.40;;
1378;SDS011;683;48.738;9.226;2023-08-24T02:25:04;12.67;;;11.50;;
1378;SDS011;683;48.738;9.226;2023-08-24T02:27:32;14.67;;;13.37;;
1378;SDS011;683;48.738;9.226;2023-08-24T02:29:59;13.63;;;12.07;;
1378;SDS011;683;48.738;9.226;2023-08-24T02:32:28;13.40;;;12.23;;
1378;SDS011;683;48.738;9.226;2023-08-24T02:35:00;13.10;;;12.07;;
1378;SDS011;683;48.738;9.226;2023-08-24T02:37:29;13.00;;;11.93;;
1378;SDS011;683;48.738;9.226;2023-08-24T02:39:57;13.67;;;12.10;;
1378;SDS011;683;48.738;9.226;2023-08-24T02:42:24;12.80;;;11.60;;
1378;SDS011;683;48.738;9.226;2023-08-24T02:44:51;12.40;;;11.50;;
1378;SDS011;683;48.738;9.226;2023-08-24T02:47:18;12.47;;;11.37;;
1378;SDS011;683;48.738;9.226;2023-08-24T02:49:46;12.80;;;11.60;;
1378;SDS011;683;48.738;9.226;2023-08-24T02:52:14;11.30;;;9.70;;
1378;SDS011;683;48.738;9.226;2023-08-24T02:54:41;10.77;;;9.77;;
1378;SDS011;683;48.738;9.226;2023-08-24T02:57:08;10.90;;;9.53;;
1378;SDS011;683;48.738;9.226;2023-08-24T02:59:35;10.43;;;9.63;;
1378;SDS011;683;48.738;9.226;2023-08-24T03:02:03;9.40;;;8.73;;
1378;SDS011;683;48.738;9.226;2023-08-24T03:04:31;10.23;;;9.23;;
1378;SDS011;683;48.738;9.226;2023-08-24T03:06:59;9.00;;;8.10;;
1378;SDS011;683;48.738;9.226;2023-08-24T03:09:28;10.00;;;9.20;;
1378;SDS011;683;48.738;9.226;2023-08-24T03:11:55;10.40;;;8.50;;
1378;SDS011;683;48.738;9.226;2023-08-24T03:14:22;8.30;;;7.70;;
1378;SDS011;683;48.738;9.226;2023-08-24T03:16:49;9.90;;;9.10;;
1378;SDS011;683;48.738;9.226;2023-08-24T03:19:16;8.97;;;8.20;;
1378;SDS011;683;48.738;9.226;2023-08-24T03:21:44;9.70;;;9.00;;
1378;SDS011;683;48.738;9.226;2023-08-24T03:24:11;10.20;;;9.17;;
1378;SDS011;683;48.738;9.226;2023-08-24T03:26:40;9.50;;;8.60;;
1378;SDS011;683;48.738;9.226;2023-08-24T03:29:07;8.90;;;8.13;;
1378;SDS011;683;48.738;9.226;2023-08-24T03:31:34;9.80;;;8.97;;
1378;SDS011;683;48.738;9.226;2023-08-24T03:34:02;8.80;;;8.20;;
1378;SDS011;683;48.738;9.226;2023-08-24T03:36:29;10.50;;;9.50;;
1378;SDS011;683;48.738;9.226;2023-08-24T03:38:58;9.90;;;9.00;;
1378;SDS011;683;48.738;9.226;2023-08-24T03:41:25;9.30;;;8.47;;
1378;SDS011;683;48.738;9.226;2023-08-24T03:43:53;9.70;;;8.90;;
1378;SDS011;683;48.738;9.226;2023-08-24T03:46:20;10.23;;;9.40;;
1378;SDS011;683;48.738;9.226;2023-08-24T03:48:47;9.43;;;8.73;;
1378;SDS011;683;48.738;9.226;2023-08-24T03:51:14;11.17;;;10.13;;
1378;SDS011;683;48.738;9.226;2023-08-24T03:53:41;11.40;;;10.20;;
1378;SDS011;683;48.738;9.226;2023-08-24T03:56:10;10.40;;;9.60;;
1378;SDS011;683;48.738;9.226;2023-08-24T03:58:37;10.80;;;9.80;;
1378;SDS011;683;48.738;9.226;2023-08-24T04:01:11;11.03;;;9.50;;
1378;SDS011;683;48.738;9.226;2023-08-24T04:03:38;10.57;;;9.87;;
1378;SDS011;683;48.738;9.226;2023-08-24T04:06:05;11.10;;;10.10;;
1378;SDS011;683;48.738;9.226;2023-08-24T04:08:33;11.60;;;10.60;;
1378;SDS011;683;48.738;9.226;2023-08-24T04:11:00;11.37;;;10.40;;
1378;SDS011;683;48.738;9.226;2023-08-24T04:13:28;10.17;;;9.27;;
1378;SDS011;683;48.738;9.226;2023-08-24T04:15:55;11.83;;;10.83;;
1378;SDS011;683;48.738;9.226;2023-08-24T04:18:23;12.30;;;11.03;;
1378;SDS011;683;48.738;9.226;2023-08-24T04:20:51;11.20;;;10.20;;
1378;SDS011;683;48.738;9.226;2023-08-24T04:23:23;13.40;;;12.20;;
1378;SDS011;683;48.738;9.226;2023-08-24T04:25:51;11.93;;;10.73;;
1378;SDS011;683;48.738;9.226;2023-08-24T04:28:18;12.93;;;11.83;;
1378;SDS011;683;48.738;9.226;2023-08-24T04:30:49;13.43;;;12.17;;
1378;SDS011;683;48.738;9.226;2023-08-24T04:33:16;14.97;;;13.67;;
1378;SDS011;683;48.738;9.226;2023-08-24T04:35:46;15.03;;;13.60;;
1378;SDS011;683;48.738;9.226;2023-08-24T04:38:13;14.70;;;13.50;;
1378;SDS011;683;48.738;9.226;2023-08-24T04:40:48;14.60;;;13.50;;
1378;SDS011;683;48.738;9.226;2023-08-24T04:43:16;13.90;;;12.70;;
1378;SDS011;683;48.738;9.226;2023-08-24T04:45:45;15.13;;;13.93;;
1378;SDS011;683;48.738;9.226;2023-08-24T04:48:14;14.00;;;12.90;;
1378;SDS011;683;48.738;9.226;2023-08-24T04:50:41;14.80;;;13.50;;
1378;SDS011;683;48.738;9.226;2023-08-24T04:53:11;13.50;;;12.20;;
1378;SDS011;683;48.738;9.226;2023-08-24T04:55:39;13.83;;;12.67;;
1378;SDS011;683;48.738;9.226;2023-08-24T04:58:06;13.23;;;12.03;;
1378;SDS011;683;48.738;9.226;2023-08-24T05:00:34;14.87;;;13.40;;
1378;SDS011;683;48.738;9.226;2023-08-24T05:03:01;14.00;;;12.77;;
1378;SDS011;683;48.738;9.226;2023-08-24T05:05:29;14.57;;;13.27;;
1378;SDS011;683;48.738;9.226;2023-08-24T05:07:56;14.63;;;13.20;;
1378;SDS011;683;48.738;9.226;2023-08-24T05:10:25;15.00;;;13.80;;
1378;SDS011;683;48.738;9.226;2023-08-24T05:12:56;13.10;;;12.10;;
1378;SDS011;683;48.738;9.226;2023-08-24T05:15:23;13.00;;;12.00;;
1378;SDS011;683;48.738;9.226;2023-08-24T05:17:50;14.50;;;13.30;;
1378;SDS011;683;48.738;9.226;2023-08-24T05:20:20;13.63;;;12.33;;
1378;SDS011;683;48.738;9.226;2023-08-24T05:22:47;12.00;;;11.00;;
1378;SDS011;683;48.738;9.226;2023-08-24T05:25:14;13.03;;;11.83;;
1378;SDS011;683;48.738;9.226;2023-08-24T05:27:44;13.37;;;11.80;;
1378;SDS011;683;48.738;9.226;2023-08-24T05:30:11;11.30;;;10.30;;
1378;SDS011;683;48.738;9.226;2023-08-24T05:32:38;12.07;;;11.03;;
1378;SDS011;683;48.738;9.226;2023-08-24T05:35:07;11.37;;;10.57;;
1378;SDS011;683;48.738;9.226;2023-08-24T05:37:35;11.90;;;10.80;;
1378;SDS011;683;48.738;9.226;2023-08-24T05:40:02;12.13;;;10.93;;
1378;SDS011;683;48.738;9.226;2023-08-24T05:42:30;15.20;;;11.17;;
1378;SDS011;683;48.738;9.226;2023-08-24T05:44:59;13.77;;;11.27;;
1378;SDS011;683;48.738;9.226;2023-08-24T05:47:26;11.97;;;10.83;;
1378;SDS011;683;48.738;9.226;2023-08-24T05:49:56;11.50;;;10.50;;
1378;SDS011;683;48.738;9.226;2023-08-24T05:52:23;11.03;;;10.17;;
1378;SDS011;683;48.738;9.226;2023-08-24T05:54:50;10.87;;;9.83;;
1378;SDS011;683;48.738;9.226;2023-08-24T05:57:17;11.03;;;10.03;;
1378;SDS011;683;48.738;9.226;2023-08-24T05:59:44;9.60;;;8.80;;
1378;SDS011;683;48.738;9.226;2023-08-24T06:02:13;11.47;;;10.47;;
1378;SDS011;683;48.738;9.226;2023-08-24T06:04:40;11.27;;;10.37;;
1378;SDS011;683;48.738;9.226;2023-08-24T06:07:07;9.80;;;8.80;;
1378;SDS011;683;48.738;9.226;2023-08-24T06:09:37;9.77;;;9.07;;
1378;SDS011;683;48.738;9.226;2023-08-24T06:12:04;10.00;;;9.23;;
1378;SDS011;683;48.738;9.226;2023-08-24T06:14:32;9.83;;;8.87;;
1378;SDS011;683;48.738;9.226;2023-08-24T06:16:59;9.63;;;8.90;;
1378;SDS011;683;48.738;9.226;2023-08-24T06:19:28;9.73;;;9.03;;
1378;SDS011;683;48.738;9.226;2023-08-24T06:21:55;10.27;;;9.37;;
1378;SDS011;683;48.738;9.226;2023-08-24T06:24:22;10.80;;;9.37;;
1378;SDS011;683;48.738;9.226;2023-08-24T06:26:49;10.87;;;9.97;;
1378;SDS011;683;48.738;9.226;2023-08-24T06:29:16;10.47;;;8.30;;
1378;SDS011;683;48.738;9.226;2023-08-24T06:31:44;9.97;;;9.17;;
1378;SDS011;683;48.738;9.226;2023-08-24T06:34:11;9.90;;;9.10;;
1378;SDS011;683;48.738;9.226;2023-08-24T06:36:39;12.60;;;10.30;;
1378;SDS011;683;48.738;9.226;2023-08-24T06:39:06;9.73;;;8.93;;
1378;SDS011;683;48.738;9.226;2023-08-24T06:41:35;9.17;;;8.33;;
1378;SDS011;683;48.738;9.226;2023-08-24T06:44:06;8.73;;;7.90;;
1378;SDS011;683;48.738;9.226;2023-08-24T06:46:34;10.10;;;9.20;;
1378;SDS011;683;48.738;9.226;2023-08-24T06:49:01;9.60;;;8.70;;
1378;SDS011;683;48.738;9.226;2023-08-24T06:51:28;10.13;;;9.03;;
1378;SDS011;683;48.738;9.226;2023-08-24T06:53:57;8.93;;;8.13;;
1378;SDS011;683;48.738;9.226;2023-08-24T06:56:24;9.00;;;8.03;;
1378;SDS011;683;48.738;9.226;2023-08-24T06:58:51;9.63;;;8.57;;
1378;SDS011;683;48.738;9.226;2023-08-24T07:01:18;8.40;;;7.70;;
1378;SDS011;683;48.738;9.226;2023-08-24T07:03:45;10.40;;;9.50;;
1378;SDS011;683;48.738;9.226;2023-08-24T07:06:12;10.30;;;8.93;;
1378;SDS011;683;48.738;9.226;2023-08-24T07:08:39;10.03;;;8.70;;
1378;SDS011;683;48.738;9.226;2023-08-24T07:11:08;9.60;;;8.23;;
1378;SDS011;683;48.738;9.226;2023-08-24T07:13:35;7.27;;;6.67;;
1378;SDS011;683;48.738;9.226;2023-08-24T07:16:02;7.50;;;6.90;;
1378;SDS011;683;48.738;9.226;2023-08-24T07:18:30;6.93;;;6.37;;
1378;SDS011;683;48.738;9.226;2023-08-24T07:20:57;7.00;;;6.50;;
1378;SDS011;683;48.738;9.226;2023-08-24T07:23:24;9.20;;;7.90;;
1378;SDS011;683;48.738;9.226;2023-08-24T07:25:52;8.03;;;7.00;;
1378;SDS011;683;48.738;9.226;2023-08-24T07:28:20;8.80;;;8.00;;
1378;SDS011;683;48.738;9.226;2023-08-24T07:30:48;10.43;;;7.50;;
1378;SDS011;683;48.738;9.226;2023-08-24T07:33:15;10.37;;;8.80;;
1378;SDS011;683;48.738;9.226;2023-08-24T07:35:42;11.70;;;8.20;;
1378;SDS011;683;48.738;9.226;2023-08-24T07:38:09;8.63;;;7.90;;
1378;SDS011;683;48.738;9.226;2023-08-24T07:40:36;8.57;;;7.87;;
1378;SDS011;683;48.738;9.226;2023-08-24T07:43:04;10.00;;;7.90;;
1378;SDS011;683;48.738;9.226;2023-08-24T07:45:32;9.03;;;8.30;;
1378;SDS011;683;48.738;9.226;2023-08-24T07:47:59;9.53;;;8.63;;
1378;SDS011;683;48.738;9.226;2023-08-24T07:50:27;8.80;;;7.90;;
1378;SDS011;683;48.738;9.226;2023-08-24T07:52:54;8.43;;;7.63;;
1378;SDS011;683;48.738;9.226;2023-08-24T07:55:21;9.27;;;8.40;;
1378;SDS011;683;48.738;9.226;2023-08-24T07:57:51;16.00;;;8.70;;
1378;SDS011;683;48.738;9.226;2023-08-24T08:00:21;10.27;;;8.73;;
1378;SDS011;683;48.738;9.226;2023-08-24T08:02:51;9.43;;;8.63;;
1378;SDS011;683;48.738;9.226;2023-08-24T08:05:18;8.70;;;7.80;;
1378;SDS011;683;48.738;9.226;2023-08-24T08:07:45;8.20;;;7.27;;
1378;SDS011;683;48.738;9.226;2023-08-24T08:10:16;11.90;;;8.03;;
1378;SDS011;683;48.738;9.226;2023-08-24T08:12:45;7.50;;;6.90;;
1378;SDS011;683;48.738;9.226;2023-08-24T08:15:12;8.93;;;7.90;;
1378;SDS011;683;48.738;9.226;2023-08-24T08:17:40;9.53;;;7.47;;
1378;SDS011;683;48.738;9.226;2023-08-24T08:20:09;9.13;;;8.17;;
1378;SDS011;683;48.738;9.226;2023-08-24T08:22:37;8.37;;;7.60;;
1378;SDS011;683;48.738;9.226;2023-08-24T08:25:04;10.53;;;8.47;;
1378;SDS011;683;48.738;9.226;2023-08-24T08:27:32;9.00;;;7.80;;
1378;SDS011;683;48.738;9.226;2023-08-24T08:29:59;9.40;;;7.57;;
1378;SDS011;683;48.738;9.226;2023-08-24T08:32:26;9.23;;;7.33;;
1378;SDS011;683;48.738;9.226;2023-08-24T08:34:53;7.30;;;6.60;;
1378;SDS011;683;48.738;9.226;2023-08-24T08:37:23;8.47;;;7.80;;
1378;SDS011;683;48.738;9.226;2023-08-24T08:39:51;8.57;;;7.70;;
1378;SDS011;683;48.738;9.226;2023-08-24T08:42:18;7.90;;;7.30;;
1378;SDS011;683;48.738;9.226;2023-08-24T08:44:45;7.60;;;6.90;;
1378;SDS011;683;48.738;9.226;2023-08-24T08:47:13;7.83;;;7.07;;
1378;SDS011;683;48.738;9.226;2023-08-24T08:49:41;7.40;;;6.80;;
1378;SDS011;683;48.738;9.226;2023-08-24T08:52:09;9.50;;;8.10;;
1378;SDS011;683;48.738;9.226;2023-08-24T08:54:38;13.57;;;11.43;;
1378;SDS011;683;48.738;9.226;2023-08-24T08:57:06;7.70;;;7.00;;
1378;SDS011;683;48.738;9.226;2023-08-24T08:59:34;6.63;;;5.73;;
1378;SDS011;683;48.738;9.226;2023-08-24T09:02:02;6.63;;;6.13;;
1378;SDS011;683;48.738;9.226;2023-08-24T09:04:31;7.90;;;7.10;;
1378;SDS011;683;48.738;9.226;2023-08-24T09:06:59;10.03;;;7.30;;
1378;SDS011;683;48.738;9.226;2023-08-24T09:09:29;7.20;;;6.60;;
1378;SDS011;683;48.738;9.226;2023-08-24T09:11:58;7.33;;;6.50;;
1378;SDS011;683;48.738;9.226;2023-08-24T09:14:26;8.50;;;6.50;;
1378;SDS011;683;48.738;9.226;2023-08-24T09:16:53;6.90;;;6.30;;
1378;SDS011;683;48.738;9.226;2023-08-24T09:19:20;7.43;;;6.70;;
1378;SDS011;683;48.738;9.226;2023-08-24T09:21:56;9.60;;;7.10;;
1378;SDS011;683;48.738;9.226;2023-08-24T09:24:29;7.27;;;6.60;;
1378;SDS011;683;48.738;9.226;2023-08-24T09:26:58;6.27;;;5.67;;
1378;SDS011;683;48.738;9.226;2023-08-24T09:29:26;12.27;;;5.83;;
1378;SDS011;683;48.738;9.226;2023-08-24T09:31:53;7.20;;;6.23;;
1378;SDS011;683;48.738;9.226;2023-08-24T09:34:22;6.93;;;6.10;;
1378;SDS011;683;48.738;9.226;2023-08-24T09:36:52;7.67;;;6.83;;
1378;SDS011;683;48.738;9.226;2023-08-24T09:39:19;9.17;;;6.40;;
1378;SDS011;683;48.738;9.226;2023-08-24T09:41:48;11.10;;;7.10;;
1378;SDS011;683;48.738;9.226;2023-08-24T09:44:18;7.90;;;7.10;;
1378;SDS011;683;48.738;9.226;2023-08-24T09:46:45;8.07;;;6.70;;
1378;SDS011;683;48.738;9.226;2023-08-24T09:49:12;9.23;;;6.23;;
1378;SDS011;683;48.738;9.226;2023-08-24T09:51:40;7.50;;;6.90;;
1378;SDS011;683;48.738;9.226;2023-08-24T09:54:09;7.13;;;6.40;;
1378;SDS011;683;48.738;9.226;2023-08-24T09:56:39;7.43;;;6.57;;
1378;SDS011;683;48.738;9.226;2023-08-24T09:59:11;8.20;;;6.50;;
1378;SDS011;683;48.738;9.226;2023-08-24T10:01:44;10.10;;;7.40;;
1378;SDS011;683;48.738;9.226;2023-08-24T10:04:13;7.70;;;6.23;;
1378;SDS011;683;48.738;9.226;2023-08-24T10:06:41;8.00;;;7.30;;
1378;SDS011;683;48.738;9.226;2023-08-24T10:09:11;6.90;;;6.30;;
1378;SDS011;683;48.738;9.226;2023-08-24T10:11:46;7.27;;;6.60;;
1378;SDS011;683;48.738;9.226;2023-08-24T10:14:18;8.77;;;8.00;;
1378;SDS011;683;48.738;9.226;2023-08-24T10:16:52;7.60;;;6.97;;
1378;SDS011;683;48.738;9.226;2023-08-24T10:19:20;7.23;;;6.73;;
1378;SDS011;683;48.738;9.226;2023-08-24T10:21:48;7.87;;;7.20;;
1378;SDS011;683;48.738;9.226;2023-08-24T10:24:16;10.73;;;7.80;;
1378;SDS011;683;48.738;9.226;2023-08-24T10:26:46;7.40;;;6.80;;
1378;SDS011;683;48.738;9.226;2023-08-24T10:29:14;8.10;;;7.30;;
1378;SDS011;683;48.738;9.226;2023-08-24T10:31:43;8.13;;;7.33;;
1378;SDS011;683;48.738;9.226;2023-08-24T10:34:12;8.40;;;7.60;;
1378;SDS011;683;48.738;9.226;2023-08-24T10:36:39;8.83;;;7.93;;
1378;SDS011;683;48.738;9.226;2023-08-24T10:39:07;8.17;;;7.57;;
1378;SDS011;683;48.738;9.226;2023-08-24T10:41:46;8.80;;;8.00;;
1378;SDS011;683;48.738;9.226;2023-08-24T10:44:21;8.10;;;7.40;;
1378;SDS011;683;48.738;9.226;2023-08-24T10:47:07;7.90;;;7.33;;
1378;SDS011;683;48.738;9.226;2023-08-24T10:49:40;8.17;;;7.47;;
1378;SDS011;683;48.738;9.226;2023-08-24T10:52:16;9.17;;;8.27;;
1378;SDS011;683;48.738;9.226;2023-08-24T10:54:43;9.20;;;8.40;;
1378;SDS011;683;48.738;9.226;2023-08-24T10:57:20;7.90;;;7.20;;
1378;SDS011;683;48.738;9.226;2023-08-24T10:59:58;12.83;;;9.07;;
1378;SDS011;683;48.738;9.226;2023-08-24T11:02:31;10.80;;;7.83;;
1378;SDS011;683;48.738;9.226;2023-08-24T11:05:14;8.30;;;7.60;;
1378;SDS011;683;48.738;9.226;2023-08-24T11:07:49;8.83;;;8.07;;
1378;SDS011;683;48.738;9.226;2023-08-24T11:10:17;8.40;;;7.63;;
1378;SDS011;683;48.738;9.226;2023-08-24T11:15:36;9.27;;;8.37;;
1378;SDS011;683;48.738;9.226;2023-08-24T11:18:11;8.13;;;7.33;;
1378;SDS011;683;48.738;9.226;2023-08-24T11:20:48;9.00;;;8.20;;
1378;SDS011;683;48.738;9.226;2023-08-24T11:23:17;11.63;;;7.23;;
1378;SDS011;683;48.738;9.226;2023-08-24T11:25:45;8.60;;;7.90;;
1378;SDS011;683;48.738;9.226;2023-08-24T11:28:20;7.60;;;6.90;;
1378;SDS011;683;48.738;9.226;2023-08-24T11:30:48;17.23;;;8.77;;
1378;SDS011;683;48.738;9.226;2023-08-24T11:33:16;8.73;;;8.03;;
1378;SDS011;683;48.738;9.226;2023-08-24T11:35:44;9.23;;;8.43;;
1378;SDS011;683;48.738;9.226;2023-08-24T11:38:13;8.13;;;7.43;;
1378;SDS011;683;48.738;9.226;2023-08-24T11:40:40;9.40;;;8.50;;
1378;SDS011;683;48.738;9.226;2023-08-24T11:43:07;8.47;;;7.77;;
1378;SDS011;683;48.738;9.226;2023-08-24T11:45:35;9.87;;;8.90;;
1378;SDS011;683;48.738;9.226;2023-08-24T11:48:06;9.37;;;8.47;;
1378;SDS011;683;48.738;9.226;2023-08-24T11:50:33;9.10;;;8.33;;
1378;SDS011;683;48.738;9.226;2023-08-24T11:53:01;8.37;;;7.53;;
1378;SDS011;683;48.738;9.226;2023-08-24T11:55:29;9.80;;;7.63;;
1378;SDS011;683;48.738;9.226;2023-08-24T11:57:57;8.87;;;8.13;;
1378;SDS011;683;48.738;9.226;2023-08-24T12:00:24;8.90;;;8.00;;
1378;SDS011;683;48.738;9.226;2023-08-24T12:02:52;8.40;;;7.60;;
1378;SDS011;683;48.738;9.226;2023-08-24T12:05:20;7.67;;;7.00;;
1378;SDS011;683;48.738;9.226;2023-08-24T12:07:48;9.10;;;8.20;;
1378;SDS011;683;48.738;9.226;2023-08-24T12:10:16;9.57;;;8.70;;
1378;SDS011;683;48.738;9.226;2023-08-24T12:12:44;8.33;;;7.53;;
1378;SDS011;683;48.738;9.226;2023-08-24T12:15:15;10.63;;;8.50;;
1378;SDS011;683;48.738;9.226;2023-08-24T12:17:43;10.97;;;7.93;;
1378;SDS011;683;48.738;9.226;2023-08-24T12:20:16;8.67;;;7.83;;
1378;SDS011;683;48.738;9.226;2023-08-24T12:22:49;7.80;;;7.20;;
1378;SDS011;683;48.738;9.226;2023-08-24T12:25:22;8.33;;;7.60;;
1378;SDS011;683;48.738;9.226;2023-08-24T12:27:52;8.70;;;7.13;;
1378;SDS011;683;48.738;9.226;2023-08-24T12:30:19;7.57;;;6.93;;
1378;SDS011;683;48.738;9.226;2023-08-24T12:32:47;8.17;;;7.40;;
1378;SDS011;683;48.738;9.226;2023-08-24T12:35:16;9.70;;;7.03;;
1378;SDS011;683;48.738;9.226;2023-08-24T12:37:43;9.33;;;7.57;;
1378;SDS011;683;48.738;9.226;2023-08-24T12:40:10;8.77;;;8.00;;
1378;SDS011;683;48.738;9.226;2023-08-24T12:42:39;9.20;;;7.77;;
1378;SDS011;683;48.738;9.226;2023-08-24T12:45:08;7.63;;;6.90;;
1378;SDS011;683;48.738;9.226;2023-08-24T12:47:35;7.47;;;6.73;;
1378;SDS011;683;48.738;9.226;2023-08-24T12:50:07;6.87;;;6.20;;
1378;SDS011;683;48.738;9.226;2023-08-24T12:52:35;7.10;;;6.40;;
1378;SDS011;683;48.738;9.226;2023-08-24T12:55:02;6.87;;;6.33;;
1378;SDS011;683;48.738;9.226;2023-08-24T12:57:29;8.10;;;6.20;;
1378;SDS011;683;48.738;9.226;2023-08-24T12:59:57;7.23;;;6.30;;
1378;SDS011;683;48.738;9.226;2023-08-24T13:02:25;8.17;;;7.03;;
1378;SDS011;683;48.738;9.226;2023-08-24T13:04:53;6.93;;;6.30;;
1378;SDS011;683;48.738;9.226;2023-08-24T13:07:20;8.07;;;7.17;;
1378;SDS011;683;48.738;9.226;2023-08-24T13:09:49;7.97;;;7.17;;
1378;SDS011;683;48.738;9.226;2023-08-24T13:12:16;8.63;;;5.93;;
1378;SDS011;683;48.738;9.226;2023-08-24T13:14:43;7.00;;;6.40;;
1378;SDS011;683;48.738;9.226;2023-08-24T13:17:10;11.27;;;6.10;;
1378;SDS011;683;48.738;9.226;2023-08-24T13:19:39;6.10;;;5.67;;
1378;SDS011;683;48.738;9.226;2023-08-24T13:22:06;7.30;;;6.60;;
1378;SDS011;683;48.738;9.226;2023-08-24T13:24:33;10.83;;;7.37;;
1378;SDS011;683;48.738;9.226;2023-08-24T13:27:01;9.50;;;6.97;;
1378;SDS011;683;48.738;9.226;2023-08-24T13:29:29;10.17;;;7.10;;
1378;SDS011;683;48.738;9.226;2023-08-24T13:31:56;8.50;;;6.40;;
1378;SDS011;683;48.738;9.226;2023-08-24T13:34:23;8.20;;;6.53;;
1378;SDS011;683;48.738;9.226;2023-08-24T13:36:55;9.30;;;5.60;;
1378;SDS011;683;48.738;9.226;2023-08-24T13:39:22;13.93;;;7.27;;
1378;SDS011;683;48.738;9.226;2023-08-24T13:41:49;8.40;;;6.90;;
1378;SDS011;683;48.738;9.226;2023-08-24T13:44:17;8.83;;;6.77;;
1378;SDS011;683;48.738;9.226;2023-08-24T13:46:44;6.53;;;6.00;;
1378;SDS011;683;48.738;9.226;2023-08-24T13:49:12;6.80;;;5.93;;
1378;SDS011;683;48.738;9.226;2023-08-24T13:51:39;12.63;;;7.27;;
1378;SDS011;683;48.738;9.226;2023-08-24T13:54:13;12.53;;;6.93;;
1378;SDS011;683;48.738;9.226;2023-08-24T13:56:41;12.70;;;7.00;;
1378;SDS011;683;48.738;9.226;2023-08-24T13:59:08;8.43;;;6.40;;
1378;SDS011;683;48.738;9.226;2023-08-24T14:01:35;7.80;;;7.10;;
1378;SDS011;683;48.738;9.226;2023-08-24T14:04:02;11.10;;;6.53;;
1378;SDS011;683;48.738;9.226;2023-08-24T14:06:30;8.30;;;6.37;;
1378;SDS011;683;48.738;9.226;2023-08-24T14:08:58;6.80;;;6.20;;
1378;SDS011;683;48.738;9.226;2023-08-24T14:11:30;8.43;;;6.50;;
1378;SDS011;683;48.738;9.226;2023-08-24T14:13:59;9.90;;;6.37;;
1378;SDS011;683;48.738;9.226;2023-08-24T14:16:27;7.27;;;5.60;;
1378;SDS011;683;48.738;9.226;2023-08-24T14:18:54;11.87;;;6.43;;
1378;SDS011;683;48.738;9.226;2023-08-24T14:21:21;11.80;;;6.77;;
1378;SDS011;683;48.738;9.226;2023-08-24T14:23:48;6.63;;;5.97;;
1378;SDS011;683;48.738;9.226;2023-08-24T14:26:16;7.70;;;6.60;;
1378;SDS011;683;48.738;9.226;2023-08-24T14:28:48;10.13;;;6.13;;
1378;SDS011;683;48.738;9.226;2023-08-24T14:31:16;9.17;;;6.23;;
1378;SDS011;683;48.738;9.226;2023-08-24T14:33:43;9.50;;;6.30;;
1378;SDS011;683;48.738;9.226;2023-08-24T14:36:10;12.37;;;6.03;;
1378;SDS011;683;48.738;9.226;2023-08-24T14:38:38;9.00;;;6.07;;
1378;SDS011;683;48.738;9.226;2023-08-24T14:41:09;7.27;;;6.60;;
1378;SDS011;683;48.738;9.226;2023-08-24T14:43:36;7.93;;;6.60;;
1378;SDS011;683;48.738;9.226;2023-08-24T14:46:05;8.93;;;6.00;;
1378;SDS011;683;48.738;9.226;2023-08-24T14:48:33;7.23;;;6.33;;
1378;SDS011;683;48.738;9.226;2023-08-24T14:51:00;10.53;;;6.30;;
1378;SDS011;683;48.738;9.226;2023-08-24T14:53:28;7.30;;;6.07;;
1378;SDS011;683;48.738;9.226;2023-08-24T14:55:55;10.93;;;6.60;;
1378;SDS011;683;48.738;9.226;2023-08-24T14:58:23;7.30;;;6.57;;
1378;SDS011;683;48.738;9.226;2023-08-24T15:00:52;20.63;;;6.67;;
1378;SDS011;683;48.738;9.226;2023-08-24T15:03:21;8.47;;;6.00;;
1378;SDS011;683;48.738;9.226;2023-08-24T15:05:55;11.00;;;6.70;;
1378;SDS011;683;48.738;9.226;2023-08-24T15:08:24;11.90;;;7.73;;
1378;SDS011;683;48.738;9.226;2023-08-24T15:10:53;11.23;;;6.93;;
1378;SDS011;683;48.738;9.226;2023-08-24T15:13:21;8.80;;;7.57;;
1378;SDS011;683;48.738;9.226;2023-08-24T15:15:49;15.70;;;8.00;;
1378;SDS011;683;48.738;9.226;2023-08-24T15:18:16;14.30;;;6.73;;
1378;SDS011;683;48.738;9.226;2023-08-24T15:20:44;6.40;;;5.80;;
1378;SDS011;683;48.738;9.226;2023-08-24T15:23:19;7.93;;;4.90;;
1378;SDS011;683;48.738;9.226;2023-08-24T15:25:47;6.93;;;4.50;;
1378;SDS011;683;48.738;9.226;2023-08-24T15:28:14;6.23;;;4.63;;
1378;SDS011;683;48.738;9.226;2023-08-24T15:30:41;7.53;;;4.90;;